createdAt,value
2022-12-24T00:00:31.100Z,99839.03
2022-12-24T00:02:57.834Z,99844.88
2022-12-24T00:05:24.367Z,99842.06
2022-12-24T00:07:50.782Z,99847.56
2022-12-24T00:10:17.193Z,99854.84
2022-12-24T00:12:43.662Z,99844.59
2022-12-24T00:15:10.317Z,99853.78
2022-12-24T00:17:36.774Z,99850.09
2022-12-24T00:20:04.532Z,99844.16
2022-12-24T00:22:31.020Z,99850.94
2022-12-24T00:24:57.502Z,99854.84
2022-12-24T00:27:23.964Z,99850.88
2022-12-24T00:29:50.472Z,99840.94
2022-12-24T00:32:17.002Z,99837.00
2022-12-24T00:34:43.430Z,99840.00
2022-12-24T00:37:09.864Z,99846.28
2022-12-24T00:39:36.274Z,99860.53
2022-12-24T00:42:02.830Z,99854.72
2022-12-24T00:44:29.263Z,99855.38
2022-12-24T00:46:55.700Z,99861.75
2022-12-24T00:49:22.224Z,99874.47
2022-12-24T00:51:48.719Z,99894.19
2022-12-24T00:54:15.155Z,99904.63
2022-12-24T00:56:41.666Z,99891.03
2022-12-24T00:59:08.074Z,99883.34
2022-12-24T01:01:35.805Z,99889.81
2022-12-24T01:04:21.136Z,99892.59
2022-12-24T01:06:47.568Z,99878.13
2022-12-24T01:09:14.003Z,99869.59
2022-12-24T01:11:40.600Z,99856.75
2022-12-24T01:14:06.988Z,99837.75
2022-12-24T01:16:33.545Z,99833.16
2022-12-24T01:19:00.023Z,99822.69
2022-12-24T01:21:26.556Z,99824.06
2022-12-24T01:23:52.995Z,99806.91
2022-12-24T01:26:19.427Z,99803.37
2022-12-24T01:28:45.845Z,99814.19
2022-12-24T01:31:19.587Z,99810.44
2022-12-24T01:33:46.248Z,99804.47
2022-12-24T01:36:12.956Z,99799.34
2022-12-24T01:38:39.771Z,99784.19
2022-12-24T01:41:24.998Z,99772.53
2022-12-24T01:43:51.548Z,99773.03
2022-12-24T01:46:17.976Z,99791.25
2022-12-24T01:48:45.520Z,99799.50
2022-12-24T01:51:15.875Z,99799.84
2022-12-24T01:53:42.916Z,99801.31
2022-12-24T01:56:09.432Z,99788.81
2022-12-24T01:58:35.942Z,99791.97
2022-12-24T02:01:02.486Z,99803.72
2022-12-24T02:03:29.001Z,99802.50
2022-12-24T02:05:57.017Z,99800.66
2022-12-24T02:08:23.549Z,99792.31
2022-12-24T02:10:50.092Z,99794.13
2022-12-24T02:13:17.683Z,99805.19
2022-12-24T02:15:51.037Z,99804.47
2022-12-24T02:18:22.767Z,99807.38
2022-12-24T02:21:24.734Z,99808.06
2022-12-24T02:24:06.081Z,99803.34
2022-12-24T02:26:51.052Z,99810.16
2022-12-24T02:29:36.893Z,99818.03
2022-12-24T02:32:10.602Z,99848.19
2022-12-24T02:34:37.071Z,99853.00
2022-12-24T02:37:15.161Z,99841.87
2022-12-24T02:39:47.018Z,99816.47
2022-12-24T02:42:13.538Z,99818.81
2022-12-24T02:44:44.992Z,99818.91
2022-12-24T02:47:11.654Z,99806.91
2022-12-24T02:49:38.201Z,99807.41
2022-12-24T02:52:04.761Z,99798.44
2022-12-24T02:54:31.185Z,99803.69
2022-12-24T02:56:57.656Z,99807.19
2022-12-24T02:59:33.711Z,99800.88
2022-12-24T03:02:00.221Z,99807.88
2022-12-24T03:04:40.641Z,99823.13
2022-12-24T03:07:09.516Z,99828.56
2022-12-24T03:09:39.011Z,99821.16
2022-12-24T03:12:10.969Z,99830.63
2022-12-24T03:14:37.426Z,99830.12
2022-12-24T03:17:04.136Z,99844.62
2022-12-24T03:19:30.667Z,99847.50
2022-12-24T03:21:57.253Z,99838.88
2022-12-24T03:24:23.890Z,99835.78
2022-12-24T03:26:50.447Z,99826.78
2022-12-24T03:29:16.865Z,99811.88
2022-12-24T03:31:44.386Z,99808.59
2022-12-24T03:34:11.178Z,99802.59
2022-12-24T03:36:40.080Z,99799.53
2022-12-24T03:39:06.765Z,99802.22
2022-12-24T03:41:33.316Z,99804.63
2022-12-24T03:43:59.714Z,99802.41
2022-12-24T03:46:26.234Z,99802.22
2022-12-24T03:48:52.708Z,99817.41
2022-12-24T03:51:23.228Z,99818.63
2022-12-24T03:53:49.638Z,99827.97
2022-12-24T03:56:18.360Z,99836.59
2022-12-24T03:58:44.759Z,99846.69
2022-12-24T04:01:11.271Z,99843.69
2022-12-24T04:03:37.768Z,99842.69
2022-12-24T04:06:05.148Z,99840.84
2022-12-24T04:08:31.555Z,99832.87
2022-12-24T04:10:58.049Z,99830.31
2022-12-24T04:13:24.467Z,99830.94
2022-12-24T04:16:00.676Z,99831.78
2022-12-24T04:18:27.478Z,99844.09
2022-12-24T04:20:53.952Z,99842.28
2022-12-24T04:23:20.471Z,99836.88
2022-12-24T04:25:47.078Z,99853.44
2022-12-24T04:28:13.792Z,99844.91
2022-12-24T04:30:40.459Z,99830.84
2022-12-24T04:33:07.018Z,99852.72
2022-12-24T04:35:33.469Z,99847.56
2022-12-24T04:37:59.949Z,99843.97
2022-12-24T04:40:26.372Z,99832.81
2022-12-24T04:42:52.810Z,99822.44
2022-12-24T04:45:19.313Z,99830.38
2022-12-24T04:47:45.708Z,99830.19
2022-12-24T04:50:12.089Z,99830.59
2022-12-24T04:52:38.570Z,99826.53
2022-12-24T04:55:05.158Z,99831.13
2022-12-24T04:57:32.629Z,99836.22
2022-12-24T04:59:59.060Z,99835.78
2022-12-24T05:02:25.682Z,99839.84
2022-12-24T05:04:52.371Z,99844.31
2022-12-24T05:07:18.803Z,99845.84
2022-12-24T05:09:45.195Z,99844.38
2022-12-24T05:12:13.729Z,99851.63
2022-12-24T05:14:40.464Z,99841.53
2022-12-24T05:17:06.935Z,99845.56
2022-12-24T05:19:33.427Z,99852.31
2022-12-24T05:22:18.668Z,99849.63
2022-12-24T05:25:03.472Z,99852.47
2022-12-24T05:27:29.902Z,99857.88
2022-12-24T05:29:56.403Z,99862.41
2022-12-24T05:32:22.854Z,99865.13
2022-12-24T05:34:49.298Z,99864.09
2022-12-24T05:37:15.718Z,99863.44
2022-12-24T05:39:42.101Z,99865.97
2022-12-24T05:42:08.506Z,99875.91
2022-12-24T05:44:34.882Z,99875.22
2022-12-24T05:47:01.372Z,99867.12
2022-12-24T05:49:28.898Z,99870.13
2022-12-24T05:51:55.613Z,99883.44
2022-12-24T05:54:22.035Z,99870.81
2022-12-24T05:56:48.472Z,99863.56
2022-12-24T05:59:14.895Z,99861.88
2022-12-24T06:01:45.622Z,99867.12
2022-12-24T06:04:12.228Z,99867.97
2022-12-24T06:06:38.693Z,99872.34
2022-12-24T06:09:05.225Z,99867.81
2022-12-24T06:11:31.659Z,99868.81
2022-12-24T06:13:58.082Z,99872.53
2022-12-24T06:16:24.607Z,99872.53
2022-12-24T06:18:51.173Z,99871.66
2022-12-24T06:21:17.642Z,99876.19
2022-12-24T06:23:44.252Z,99879.72
2022-12-24T06:26:11.782Z,99883.31
2022-12-24T06:28:38.269Z,99881.97
2022-12-24T06:31:05.382Z,99883.69
2022-12-24T06:33:32.381Z,99881.28
2022-12-24T06:36:01.149Z,99882.97
2022-12-24T06:38:29.494Z,99881.13
2022-12-24T06:40:56.014Z,99883.69
2022-12-24T06:43:22.511Z,99896.47
2022-12-24T06:45:48.984Z,99895.44
2022-12-24T06:48:15.616Z,99904.25
2022-12-24T06:50:42.131Z,99909.31
2022-12-24T06:53:08.546Z,99910.50
2022-12-24T06:55:35.014Z,99926.81
2022-12-24T06:58:01.416Z,99931.87
2022-12-24T07:00:30.400Z,99931.75
2022-12-24T07:02:56.839Z,99926.38
2022-12-24T07:05:23.326Z,99939.69
2022-12-24T07:07:49.714Z,99932.59
2022-12-24T07:10:16.446Z,99931.75
2022-12-24T07:12:42.899Z,99923.50
2022-12-24T07:15:09.648Z,99936.72
2022-12-24T07:17:36.185Z,99934.28
2022-12-24T07:20:02.940Z,99937.56
2022-12-24T07:22:29.362Z,99929.91
2022-12-24T07:24:55.782Z,99930.75
2022-12-24T07:27:22.170Z,99930.75
2022-12-24T07:29:48.636Z,99944.22
2022-12-24T07:32:15.086Z,99930.59
2022-12-24T07:34:41.629Z,99936.72
2022-12-24T07:37:08.044Z,99957.28
2022-12-24T07:39:34.481Z,99960.00
2022-12-24T07:42:01.199Z,99974.16
2022-12-24T07:44:27.626Z,99975.16
2022-12-24T07:46:54.188Z,99979.72
2022-12-24T07:49:20.751Z,99965.38
2022-12-24T07:51:47.225Z,99973.47
2022-12-24T07:54:13.704Z,99993.34
2022-12-24T07:56:40.112Z,99997.88
2022-12-24T07:59:06.541Z,99998.75
2022-12-24T08:01:33.165Z,100004.81
2022-12-24T08:03:59.664Z,100000.69
2022-12-24T08:06:26.212Z,100007.09
2022-12-24T08:08:52.641Z,100010.09
2022-12-24T08:11:19.043Z,100004.00
2022-12-24T08:13:45.428Z,100009.69
2022-12-24T08:16:12.000Z,100013.56
2022-12-24T08:18:38.468Z,100014.41
2022-12-24T08:21:07.275Z,100044.19
2022-12-24T08:23:33.682Z,100040.63
2022-12-24T08:26:00.109Z,100058.09
2022-12-24T08:28:26.593Z,100048.31
2022-12-24T08:30:53.062Z,100052.03
2022-12-24T08:33:19.507Z,100062.81
2022-12-24T08:35:49.617Z,100072.75
2022-12-24T08:38:16.704Z,100073.59
2022-12-24T08:40:43.590Z,100083.69
2022-12-24T08:43:10.057Z,100089.09
2022-12-24T08:45:40.993Z,100101.00
2022-12-24T08:48:08.232Z,100101.00
2022-12-24T08:50:34.859Z,100105.53
2022-12-24T08:53:01.264Z,100108.22
2022-12-24T08:55:27.690Z,100104.84
2022-12-24T08:57:56.115Z,100103.00
2022-12-24T09:00:22.677Z,100105.97
2022-12-24T09:02:49.238Z,100109.16
2022-12-24T09:05:15.776Z,100106.50
2022-12-24T09:07:42.240Z,100110.69
2022-12-24T09:10:10.943Z,100108.94
2022-12-24T09:12:37.473Z,100105.09
2022-12-24T09:15:04.542Z,100105.25
2022-12-24T09:17:31.330Z,100108.03
2022-12-24T09:19:57.727Z,100126.38
2022-12-24T09:22:24.124Z,100131.41
2022-12-24T09:24:50.568Z,100134.38
2022-12-24T09:27:17.010Z,100148.91
2022-12-24T09:29:43.427Z,100136.03
2022-12-24T09:32:10.002Z,100133.75
2022-12-24T09:34:36.877Z,100140.59
2022-12-24T09:37:05.676Z,100150.72
2022-12-24T09:39:32.115Z,100143.25
2022-12-24T09:42:18.788Z,100146.34
2022-12-24T09:45:06.635Z,100144.00
2022-12-24T09:47:43.540Z,100140.38
2022-12-24T09:50:28.891Z,100140.81
2022-12-24T09:52:55.405Z,100145.81
2022-12-24T09:55:28.033Z,100144.66
2022-12-24T09:57:54.736Z,100143.06
2022-12-24T10:00:26.033Z,100142.19
2022-12-24T10:02:52.673Z,100139.09
2022-12-24T10:05:23.013Z,100145.81
2022-12-24T10:07:53.838Z,100151.28
2022-12-24T10:10:23.378Z,100151.06
2022-12-24T10:12:50.193Z,100150.53
2022-12-24T10:15:22.902Z,100144.66
2022-12-24T10:18:01.009Z,100148.28
2022-12-24T10:20:36.560Z,100141.63
2022-12-24T10:23:21.909Z,100146.47
2022-12-24T10:25:54.032Z,100153.38
2022-12-24T10:28:38.912Z,100155.53
2022-12-24T10:31:05.823Z,100158.53
2022-12-24T10:33:33.579Z,100152.72
2022-12-24T10:36:00.403Z,100156.91
2022-12-24T10:38:26.906Z,100155.31
2022-12-24T10:40:53.985Z,100156.38
2022-12-24T10:43:21.373Z,100163.75
2022-12-24T10:45:49.431Z,100165.38
2022-12-24T10:48:22.167Z,100163.03
2022-12-24T10:50:59.571Z,100173.06
2022-12-24T10:53:45.681Z,100164.44
2022-12-24T10:56:13.526Z,100166.88
2022-12-24T10:58:44.054Z,100169.53
2022-12-24T11:01:10.539Z,100175.53
2022-12-24T11:03:37.666Z,100170.06
2022-12-24T11:06:10.257Z,100183.34
2022-12-24T11:08:37.371Z,100178.94
2022-12-24T11:11:24.100Z,100187.59
2022-12-24T11:13:50.497Z,100187.59
2022-12-24T11:16:16.946Z,100178.41
2022-12-24T11:19:02.564Z,100195.22
2022-12-24T11:21:30.837Z,100195.22
2022-12-24T11:24:03.031Z,100197.13
2022-12-24T11:26:29.780Z,100202.78
2022-12-24T11:29:06.543Z,100202.91
2022-12-24T11:31:35.823Z,100205.16
2022-12-24T11:34:03.482Z,100216.87
2022-12-24T11:36:29.960Z,100221.47
2022-12-24T11:38:57.108Z,100224.34
2022-12-24T11:41:23.882Z,100226.38
2022-12-24T11:43:51.115Z,100217.94
2022-12-24T11:46:21.785Z,100219.84
2022-12-24T11:48:48.275Z,100220.28
2022-12-24T11:51:22.882Z,100215.56
2022-12-24T11:53:49.344Z,100212.25
2022-12-24T11:56:18.493Z,100211.94
2022-12-24T11:58:52.592Z,100224.09
2022-12-24T12:01:20.670Z,100209.34
2022-12-24T12:03:48.499Z,100217.66
2022-12-24T12:06:26.970Z,100216.31
2022-12-24T12:08:55.257Z,100220.13
2022-12-24T12:11:21.820Z,100222.25
2022-12-24T12:13:48.243Z,100230.37
2022-12-24T12:16:17.609Z,100230.78
2022-12-24T12:18:47.018Z,100223.81
2022-12-24T12:21:20.872Z,100238.97
2022-12-24T12:23:49.120Z,100230.97
2022-12-24T12:26:18.398Z,100228.72
2022-12-24T12:28:46.239Z,100245.75
2022-12-24T12:31:16.662Z,100237.22
2022-12-24T12:33:44.423Z,100241.69
2022-12-24T12:36:10.936Z,100243.69
2022-12-24T12:38:37.336Z,100259.91
2022-12-24T12:41:14.009Z,100259.91
2022-12-24T12:43:40.424Z,100271.16
2022-12-24T12:46:20.065Z,100266.59
2022-12-24T12:48:56.926Z,100277.63
2022-12-24T12:51:45.233Z,100282.00
2022-12-24T12:54:24.096Z,100279.25
2022-12-24T12:56:52.172Z,100292.47
2022-12-24T12:59:28.895Z,100305.78
2022-12-24T13:01:55.457Z,100301.28
2022-12-24T13:04:28.468Z,100299.81
2022-12-24T13:07:02.966Z,100296.91
2022-12-24T13:09:48.055Z,100300.31
2022-12-24T13:12:23.691Z,100300.75
2022-12-24T13:14:58.365Z,100302.41
2022-12-24T13:17:32.550Z,100309.09
2022-12-24T13:20:10.623Z,100311.34
2022-12-24T13:22:37.276Z,100314.66
2022-12-24T13:25:03.764Z,100310.22
2022-12-24T13:27:33.431Z,100312.44
2022-12-24T13:30:07.191Z,100306.75
2022-12-24T13:32:38.726Z,100316.94
2022-12-24T13:35:25.160Z,100317.38
2022-12-24T13:37:51.916Z,100321.38
2022-12-24T13:40:25.233Z,100321.78
2022-12-24T13:43:06.733Z,100337.16
2022-12-24T13:45:33.336Z,100336.69
2022-12-24T13:48:03.045Z,100336.41
2022-12-24T13:50:29.518Z,100348.22
2022-12-24T13:52:55.937Z,100341.34
2022-12-24T13:55:22.484Z,100341.66
2022-12-24T13:58:04.473Z,100348.13
2022-12-24T14:00:31.209Z,100341.34
2022-12-24T14:03:05.796Z,100341.66
2022-12-24T14:05:32.313Z,100353.34
2022-12-24T14:07:58.771Z,100353.59
2022-12-24T14:10:32.090Z,100357.31
2022-12-24T14:12:58.508Z,100355.84
2022-12-24T14:15:43.815Z,100363.09
2022-12-24T14:18:10.447Z,100366.72
2022-12-24T14:20:36.943Z,100372.25
2022-12-24T14:23:05.011Z,100376.84
2022-12-24T14:25:31.566Z,100385.03
2022-12-24T14:28:17.384Z,100372.00
2022-12-24T14:30:43.822Z,100386.09
2022-12-24T14:33:30.572Z,100385.56
2022-12-24T14:35:57.013Z,100388.50
2022-12-24T14:38:23.493Z,100389.50
2022-12-24T14:41:00.992Z,100408.28
2022-12-24T14:43:27.388Z,100411.91
2022-12-24T14:46:05.338Z,100414.81
2022-12-24T14:48:42.826Z,100424.75
2022-12-24T14:51:21.776Z,100424.06
2022-12-24T14:54:11.517Z,100423.31
2022-12-24T14:56:37.937Z,100433.28
2022-12-24T14:59:17.395Z,100434.34
2022-12-24T15:01:44.009Z,100437.28
2022-12-24T15:04:10.601Z,100451.59
2022-12-24T15:06:38.044Z,100448.19
2022-12-24T15:09:04.452Z,100457.19
2022-12-24T15:11:30.870Z,100455.56
2022-12-24T15:13:57.632Z,100460.19
2022-12-24T15:16:25.247Z,100465.62
2022-12-24T15:18:58.898Z,100456.00
2022-12-24T15:21:25.372Z,100463.25
2022-12-24T15:23:51.945Z,100449.34
2022-12-24T15:26:22.957Z,100464.41
2022-12-24T15:28:49.642Z,100468.97
2022-12-24T15:31:16.999Z,100470.00
2022-12-24T15:33:50.424Z,100460.44
2022-12-24T15:36:18.168Z,100472.06
2022-12-24T15:38:44.920Z,100480.03
2022-12-24T15:41:21.495Z,100480.19
2022-12-24T15:43:48.373Z,100482.94
2022-12-24T15:46:18.813Z,100480.41
2022-12-24T15:48:45.302Z,100486.72
2022-12-24T15:51:12.987Z,100487.69
2022-12-24T15:53:43.671Z,100488.69
2022-12-24T15:56:11.475Z,100491.47
2022-12-24T15:58:41.820Z,100497.72
2022-12-24T16:01:15.311Z,100497.87
2022-12-24T16:04:02.229Z,100488.25
2022-12-24T16:06:28.923Z,100500.78
2022-12-24T16:08:56.472Z,100508.78
2022-12-24T16:11:23.914Z,100506.25
2022-12-24T16:13:50.604Z,100503.72
2022-12-24T16:16:20.889Z,100502.88
2022-12-24T16:18:59.829Z,100499.38
2022-12-24T16:21:29.193Z,100519.84
2022-12-24T16:23:56.468Z,100522.47
2022-12-24T16:26:22.912Z,100509.34
2022-12-24T16:28:49.361Z,100505.91
2022-12-24T16:31:19.737Z,100512.19
2022-12-24T16:33:46.406Z,100508.75
2022-12-24T16:36:13.438Z,100510.56
2022-12-24T16:38:58.288Z,100507.13
2022-12-24T16:41:24.723Z,100510.72
2022-12-24T16:43:51.176Z,100510.81
2022-12-24T16:46:17.661Z,100512.66
2022-12-24T16:48:47.801Z,100512.72
2022-12-24T16:51:14.253Z,100517.22
2022-12-24T16:53:41.281Z,100521.66
2022-12-24T16:56:07.754Z,100523.47
2022-12-24T16:58:34.965Z,100525.34
2022-12-24T17:01:06.092Z,100527.16
2022-12-24T17:03:32.770Z,100532.50
2022-12-24T17:05:59.900Z,100534.38
2022-12-24T17:08:26.328Z,100542.34
2022-12-24T17:10:52.766Z,100557.28
2022-12-24T17:13:19.303Z,100551.19
2022-12-24T17:15:45.772Z,100562.72
2022-12-24T17:18:12.208Z,100553.09
2022-12-24T17:20:38.628Z,100554.94
2022-12-24T17:23:05.072Z,100547.94
2022-12-24T17:25:31.496Z,100566.50
2022-12-24T17:27:57.891Z,100569.19
2022-12-24T17:30:24.451Z,100567.47
2022-12-24T17:32:50.883Z,100572.00
2022-12-24T17:35:17.430Z,100575.59
2022-12-24T17:37:43.846Z,100576.50
2022-12-24T17:40:10.561Z,100584.47
2022-12-24T17:42:36.988Z,100590.75
2022-12-24T17:45:03.926Z,100589.94
2022-12-24T17:47:30.588Z,100583.78
2022-12-24T17:49:57.006Z,100594.34
2022-12-24T17:52:23.516Z,100592.63
2022-12-24T17:54:49.969Z,100592.75
2022-12-24T17:57:16.485Z,100587.44
2022-12-24T17:59:42.931Z,100589.37
2022-12-24T18:02:10.090Z,100590.25
2022-12-24T18:04:36.527Z,100599.09
2022-12-24T18:07:05.336Z,100607.03
2022-12-24T18:09:31.721Z,100613.25
2022-12-24T18:11:58.116Z,100613.34
2022-12-24T18:14:24.592Z,100614.22
2022-12-24T18:16:51.096Z,100615.19
2022-12-24T18:19:18.851Z,100631.06
2022-12-24T18:21:45.270Z,100622.31
2022-12-24T18:24:12.420Z,100629.38
2022-12-24T18:26:39.032Z,100625.88
2022-12-24T18:29:05.779Z,100633.00
2022-12-24T18:31:33.639Z,100629.53
2022-12-24T18:34:00.628Z,100625.12
2022-12-24T18:36:27.094Z,100630.41
2022-12-24T18:38:53.678Z,100632.25
2022-12-24T18:41:21.265Z,100633.13
2022-12-24T18:43:48.264Z,100629.63
2022-12-24T18:46:18.838Z,100636.72
2022-12-24T18:48:45.403Z,100647.34
2022-12-24T18:51:12.049Z,100644.78
2022-12-24T18:53:38.477Z,100654.41
2022-12-24T18:56:05.807Z,100658.00
2022-12-24T18:58:32.206Z,100663.31
2022-12-24T19:00:58.677Z,100657.22
2022-12-24T19:03:25.393Z,100663.38
2022-12-24T19:05:51.838Z,100669.59
2022-12-24T19:08:55.638Z,100666.16
2022-12-24T19:11:09.328Z,100671.44
2022-12-24T19:13:35.769Z,100668.91
2022-12-24T19:16:06.016Z,100666.31
2022-12-24T19:18:35.324Z,100672.50
2022-12-24T19:21:05.815Z,100678.72
2022-12-24T19:23:32.554Z,100680.53
2022-12-24T19:25:59.075Z,100692.03
2022-12-24T19:28:26.140Z,100689.31
2022-12-24T19:30:52.715Z,100686.75
2022-12-24T19:33:19.123Z,100683.28
2022-12-24T19:35:48.654Z,100699.16
2022-12-24T19:38:15.072Z,100697.38
2022-12-24T19:40:41.533Z,100704.47
2022-12-24T19:43:07.956Z,100712.38
2022-12-24T19:45:34.393Z,100715.09
2022-12-24T19:48:00.846Z,100714.22
2022-12-24T19:50:27.252Z,100717.81
2022-12-24T19:52:53.659Z,100709.88
2022-12-24T19:55:20.068Z,100712.53
2022-12-24T19:57:46.456Z,100721.44
2022-12-24T20:00:13.067Z,100724.06
2022-12-24T20:02:39.699Z,100715.28
2022-12-24T20:05:06.457Z,100716.22
2022-12-24T20:07:32.914Z,100717.09
2022-12-24T20:09:59.392Z,100714.44
2022-12-24T20:12:25.811Z,100731.22
2022-12-24T20:14:54.777Z,100739.16
2022-12-24T20:17:21.223Z,100734.78
2022-12-24T20:19:50.427Z,100742.78
2022-12-24T20:22:16.843Z,100753.34
2022-12-24T20:24:43.295Z,100750.78
2022-12-24T20:27:09.828Z,100748.13
2022-12-24T20:29:36.274Z,100753.44
2022-12-24T20:32:02.759Z,100739.44
2022-12-24T20:34:29.246Z,100738.50
2022-12-24T20:36:55.677Z,100745.56
2022-12-24T20:39:22.310Z,100746.50
2022-12-24T20:41:48.717Z,100748.28
2022-12-24T20:44:15.122Z,100749.19
2022-12-24T20:46:41.604Z,100736.88
2022-12-24T20:49:10.003Z,100741.34
2022-12-24T20:51:36.617Z,100738.78
2022-12-24T20:54:03.061Z,100749.34
2022-12-24T20:56:30.821Z,100754.63
2022-12-24T20:58:58.451Z,100762.56
2022-12-24T21:01:25.769Z,100760.84
2022-12-24T21:03:53.566Z,100766.16
2022-12-24T21:06:20.212Z,100760.03
2022-12-24T21:08:48.086Z,100762.69
2022-12-24T21:11:33.314Z,100771.47
2022-12-24T21:14:01.730Z,100772.44
2022-12-24T21:16:28.934Z,100780.31
2022-12-24T21:18:55.441Z,100775.09
2022-12-24T21:21:22.048Z,100779.50
2022-12-24T21:23:48.477Z,100769.88
2022-12-24T21:26:15.024Z,100777.00
2022-12-24T21:28:42.671Z,100784.88
2022-12-24T21:31:12.526Z,100791.00
2022-12-24T21:33:39.130Z,100786.69
2022-12-24T21:36:05.869Z,100797.25
2022-12-24T21:38:32.506Z,100800.78
2022-12-24T21:40:59.700Z,100808.72
2022-12-24T21:43:26.108Z,100814.88
2022-12-24T21:45:53.850Z,100813.13
2022-12-24T21:48:39.540Z,100810.53
2022-12-24T21:51:06.233Z,100807.09
2022-12-24T21:53:51.292Z,100810.63
2022-12-24T21:56:17.865Z,100815.94
2022-12-24T21:58:44.344Z,100808.09
2022-12-24T22:01:10.924Z,100806.34
2022-12-24T22:03:40.607Z,100808.09
2022-12-24T22:06:07.308Z,100819.44
2022-12-24T22:08:52.206Z,100816.87
2022-12-24T22:11:37.185Z,100813.37
2022-12-24T22:14:05.767Z,100817.78
2022-12-24T22:16:32.263Z,100813.37
2022-12-24T22:18:58.691Z,100820.44
2022-12-24T22:21:25.128Z,100817.78
2022-12-24T22:23:51.535Z,100822.19
2022-12-24T22:26:18.064Z,100824.84
2022-12-24T22:28:44.516Z,100821.31
2022-12-24T22:31:20.781Z,100822.22
2022-12-24T22:33:47.224Z,100816.94
2022-12-24T22:36:13.809Z,100823.19
2022-12-24T22:38:42.410Z,100824.06
2022-12-24T22:41:08.913Z,100823.19
2022-12-24T22:43:35.591Z,100830.25
2022-12-24T22:46:04.972Z,100825.81
2022-12-24T22:48:31.419Z,100832.91
2022-12-24T22:50:57.929Z,100837.31
2022-12-24T22:53:24.359Z,100826.75
2022-12-24T22:55:57.202Z,100830.31
2022-12-24T22:58:23.835Z,100832.16
2022-12-24T23:00:51.033Z,100834.78
2022-12-24T23:03:17.524Z,100831.31
2022-12-24T23:05:44.245Z,100825.12
2022-12-24T23:08:10.737Z,100825.12
2022-12-24T23:10:37.374Z,100832.19
2022-12-24T23:13:22.684Z,100838.38
2022-12-24T23:15:49.115Z,100848.06
2022-12-24T23:18:15.544Z,100846.31
2022-12-24T23:20:46.952Z,100842.78
2022-12-24T23:23:14.068Z,100848.09
2022-12-24T23:25:43.225Z,100841.94
2022-12-24T23:28:09.673Z,100833.22
2022-12-24T23:30:36.113Z,100826.28
2022-12-24T23:33:02.562Z,100835.75
2022-12-24T23:35:28.952Z,100832.44
2022-12-24T23:37:55.397Z,100834.03
2022-12-24T23:40:21.812Z,100841.38
2022-12-24T23:42:48.295Z,100833.50
2022-12-24T23:45:14.877Z,100823.84
2022-12-24T23:47:41.387Z,100835.12
2022-12-24T23:50:08.150Z,100843.87
2022-12-24T23:52:34.578Z,100843.03
2022-12-24T23:55:01.052Z,100847.84
2022-12-24T23:57:27.474Z,100845.81
2022-12-24T23:59:53.941Z,100845.94
